Izki — V7XV2 — position and weather

sailwx.info

Track history (hours):
 
Tides and Currents Weather Stations Pressure Air Temp Water Temp Dewpoint Dewpoint Depression Visibility Wind Speed Wind Dir Waves Ship Positions

Izki

Last reported at 2017-Apr-23 19:30 UTC. Time now 2017-Apr-23 21:54 UTC.
Position N 38°53' E 122°04'.

Length 333 m; draft 11 m.

Type: Tanker. MMSI: 538004578.

Date/timePositionNaut miles runAvg speedWind from/ knotsBaromVisibWave heightAir tempDewpointWater temp
2017-Apr-23 19:30N 38°53' E 122°04'0 0.1
2017-Apr-23 19:00N 38°53' E 122°04'0 0.0
2017-Apr-23 18:27N 38°53' E 122°04'0 0.0
2017-Apr-23 17:57N 38°53' E 122°04'0 0.1
2017-Apr-23 17:30N 38°53' E 122°04'0 0.0
2017-Apr-23 16:51N 38°53' E 122°04'0 0.1
2017-Apr-23 16:12N 38°53' E 122°04'0 0.0
2017-Apr-23 15:42N 38°53' E 122°04'0 0.2
2017-Apr-23 15:30N 38°53' E 122°04'0 0.2
2017-Apr-23 15:00N 38°53' E 122°04'0 0.0
2017-Apr-23 08:54N 38°53' E 122°04'0 0.1
2017-Apr-23 01:51N 38°52' E 122°04'1 3.4
2017-Apr-23 01:29N 38°51' E 122°04'5 8.7
2017-Apr-23 00:57N 38°50' E 121°58'510.2
2017-Apr-23 00:29N 38°54' E 121°55'3 6.6
2017-Apr-22 23:58N 38°58' E 121°55'1 0.0
2017-Apr-22 02:39N 38°57' E 121°54'1 5.0
2017-Apr-22 02:30N 38°56' E 121°54'4 8.1
2017-Apr-22 02:00N 38°52' E 121°55'5 9.9
2017-Apr-22 01:30N 38°52' E 122°02'2 0.2
2017-Apr-21 12:07N 38°53' E 122°05'0 0.0
2017-Apr-21 10:25N 38°53' E 122°05'0 0.0
2017-Apr-21 09:55N 38°53' E 122°05'0 0.0
2017-Apr-21 05:07N 38°53' E 122°05'0 0.1
2017-Apr-21 04:55N 38°53' E 122°05'0 0.1
2017-Apr-21 04:28N 38°53' E 122°05'0 0.1
2017-Apr-21 03:31N 38°53' E 122°05'0 0.0
2017-Apr-20 17:03N 38°53' E 122°05'0 0.0
2017-Apr-20 16:42N 38°53' E 122°05'0 0.0
2017-Apr-20 16:30N 38°53' E 122°05'0 0.0
2017-Apr-20 16:00N 38°53' E 122°05'0 0.0
2017-Apr-20 15:30N 38°53' E 122°05'0 0.1
2017-Apr-20 14:57N 38°53' E 122°05'0 0.1
2017-Apr-20 13:42N 38°53' E 122°05'0 0.1
2017-Apr-20 09:51N 38°52' E 122°05'0 0.2
2017-Apr-20 09:09N 38°53' E 122°05'0 0.3
2017-Apr-20 09:00N 38°53' E 122°05'0 0.0
2017-Apr-20 08:30N 38°53' E 122°05'0 0.2
2017-Apr-20 07:57N 38°53' E 122°05'0 0.1
2017-Apr-20 07:27N 38°53' E 122°05'0 0.2
2017-Apr-20 06:57N 38°53' E 122°05'0 0.1
2017-Apr-20 06:27N 38°53' E 122°05'0 0.0
2017-Apr-20 06:00N 38°53' E 122°05'0 0.0
2017-Apr-20 05:30N 38°53' E 122°05'0 0.0
2017-Apr-20 05:00N 38°53' E 122°05'0 0.0
2017-Apr-20 04:30N 38°53' E 122°05'0 0.0
2017-Apr-19 23:18N 38°53' E 122°05'0 0.0
2017-Apr-19 17:41N 38°53' E 122°05'0 0.1
2017-Apr-19 17:21N 38°53' E 122°05'0 0.0
2017-Apr-19 13:50N 38°53' E 122°05'0 0.0
2017-Apr-17 18:34N 38°53' E 122°05'0 0.1
2017-Apr-17 16:31N 38°53' E 122°05'0 0.0
2017-Apr-17 16:28N 38°53' E 122°05'0 0.0
2017-Apr-17 15:43N 38°53' E 122°05'0 0.1
2017-Apr-17 15:10N 38°53' E 122°05'0 0.0
2017-Apr-17 13:58N 38°53' E 122°05'0 0.0
2017-Apr-17 12:58N 38°53' E 122°05'0 0.1
2017-Apr-17 12:16N 38°53' E 122°05'0 0.3
2017-Apr-17 11:58N 38°53' E 122°05'0 0.1
2017-Apr-17 11:28N 38°53' E 122°05'27 0.7
2017-Apr-15 20:42N 38°30' E 122°23'211.4
2017-Apr-15 20:30N 38°28' E 122°24'611.4
2017-Apr-15 20:01N 38°24' E 122°29'611.5
2017-Apr-15 19:30N 38°20' E 122°34'611.5
2017-Apr-15 19:01N 38°15' E 122°38'611.5
2017-Apr-15 18:30N 38°10' E 122°42'611.6
2017-Apr-15 18:00N 38°05' E 122°46'611.4
2017-Apr-15 17:30N 38°01' E 122°50'611.5
2017-Apr-15 17:00N 37°56' E 122°55'611.3
2017-Apr-15 16:30N 37°53' E 123°01'611.4
2017-Apr-15 16:00N 37°51' E 123°07'612.2
2017-Apr-15 15:30N 37°46' E 123°13'811.8
2017-Apr-15 14:49N 37°39' E 123°18'412.8
2017-Apr-15 14:30N 37°35' E 123°19'1313.1
2017-Apr-15 13:30N 37°23' E 123°26'713.0
2017-Apr-15 12:59N 37°17' E 123°29'611.7
2017-Apr-15 12:30N 37°12' E 123°32'1013.4
2017-Apr-15 11:47N 37°04' E 123°38'  
Track history (hours):
 
Tides and Currents Weather Stations Pressure Air Temp Water Temp Dewpoint Dewpoint Depression Visibility Wind Speed Wind Dir Waves Ship Positions

Izki

Last reported at 2017-Apr-23 19:30 UTC. Time now 2017-Apr-23 21:54 UTC.
Position N 38°53' E 122°04'.

Length 333 m; draft 11 m.

Type: Tanker. MMSI: 538004578.

Date/timePositionNaut miles runAvg speedWind from/ knotsBaromVisibWave heightAir tempDewpointWater temp
2017-Apr-23 19:30N 38°53' E 122°04'0 0.1
2017-Apr-23 19:00N 38°53' E 122°04'0 0.0
2017-Apr-23 18:27N 38°53' E 122°04'0 0.0
2017-Apr-23 17:57N 38°53' E 122°04'0 0.1
2017-Apr-23 17:30N 38°53' E 122°04'0 0.0
2017-Apr-23 16:51N 38°53' E 122°04'0 0.1
2017-Apr-23 16:12N 38°53' E 122°04'0 0.0
2017-Apr-23 15:42N 38°53' E 122°04'0 0.2
2017-Apr-23 15:30N 38°53' E 122°04'0 0.2
2017-Apr-23 15:00N 38°53' E 122°04'0 0.0
2017-Apr-23 08:54N 38°53' E 122°04'0 0.1
2017-Apr-23 01:51N 38°52' E 122°04'1 3.4
2017-Apr-23 01:29N 38°51' E 122°04'5 8.7
2017-Apr-23 00:57N 38°50' E 121°58'510.2
2017-Apr-23 00:29N 38°54' E 121°55'3 6.6
2017-Apr-22 23:58N 38°58' E 121°55'1 0.0
2017-Apr-22 02:39N 38°57' E 121°54'1 5.0
2017-Apr-22 02:30N 38°56' E 121°54'4 8.1
2017-Apr-22 02:00N 38°52' E 121°55'5 9.9
2017-Apr-22 01:30N 38°52' E 122°02'2 0.2
2017-Apr-21 12:07N 38°53' E 122°05'0 0.0
2017-Apr-21 10:25N 38°53' E 122°05'0 0.0
2017-Apr-21 09:55N 38°53' E 122°05'0 0.0
2017-Apr-21 05:07N 38°53' E 122°05'0 0.1
2017-Apr-21 04:55N 38°53' E 122°05'0 0.1
2017-Apr-21 04:28N 38°53' E 122°05'0 0.1
2017-Apr-21 03:31N 38°53' E 122°05'0 0.0
2017-Apr-20 17:03N 38°53' E 122°05'0 0.0
2017-Apr-20 16:42N 38°53' E 122°05'0 0.0
2017-Apr-20 16:30N 38°53' E 122°05'0 0.0
2017-Apr-20 16:00N 38°53' E 122°05'0 0.0
2017-Apr-20 15:30N 38°53' E 122°05'0 0.1
2017-Apr-20 14:57N 38°53' E 122°05'0 0.1
2017-Apr-20 13:42N 38°53' E 122°05'0 0.1
2017-Apr-20 09:51N 38°52' E 122°05'0 0.2
2017-Apr-20 09:09N 38°53' E 122°05'0 0.3
2017-Apr-20 09:00N 38°53' E 122°05'0 0.0
2017-Apr-20 08:30N 38°53' E 122°05'0 0.2
2017-Apr-20 07:57N 38°53' E 122°05'0 0.1
2017-Apr-20 07:27N 38°53' E 122°05'0 0.2
2017-Apr-20 06:57N 38°53' E 122°05'0 0.1
2017-Apr-20 06:27N 38°53' E 122°05'0 0.0
2017-Apr-20 06:00N 38°53' E 122°05'0 0.0
2017-Apr-20 05:30N 38°53' E 122°05'0 0.0
2017-Apr-20 05:00N 38°53' E 122°05'0 0.0
2017-Apr-20 04:30N 38°53' E 122°05'0 0.0
2017-Apr-19 23:18N 38°53' E 122°05'0 0.0
2017-Apr-19 17:41N 38°53' E 122°05'0 0.1
2017-Apr-19 17:21N 38°53' E 122°05'0 0.0
2017-Apr-19 13:50N 38°53' E 122°05'0 0.0
2017-Apr-17 18:34N 38°53' E 122°05'0 0.1
2017-Apr-17 16:31N 38°53' E 122°05'0 0.0
2017-Apr-17 16:28N 38°53' E 122°05'0 0.0
2017-Apr-17 15:43N 38°53' E 122°05'0 0.1
2017-Apr-17 15:10N 38°53' E 122°05'0 0.0
2017-Apr-17 13:58N 38°53' E 122°05'0 0.0
2017-Apr-17 12:58N 38°53' E 122°05'0 0.1
2017-Apr-17 12:16N 38°53' E 122°05'0 0.3
2017-Apr-17 11:58N 38°53' E 122°05'0 0.1
2017-Apr-17 11:28N 38°53' E 122°05'27 0.7
2017-Apr-15 20:42N 38°30' E 122°23'211.4
2017-Apr-15 20:30N 38°28' E 122°24'611.4
2017-Apr-15 20:01N 38°24' E 122°29'611.5
2017-Apr-15 19:30N 38°20' E 122°34'611.5
2017-Apr-15 19:01N 38°15' E 122°38'611.5
2017-Apr-15 18:30N 38°10' E 122°42'611.6
2017-Apr-15 18:00N 38°05' E 122°46'611.4
2017-Apr-15 17:30N 38°01' E 122°50'611.5
2017-Apr-15 17:00N 37°56' E 122°55'611.3
2017-Apr-15 16:30N 37°53' E 123°01'611.4
2017-Apr-15 16:00N 37°51' E 123°07'612.2
2017-Apr-15 15:30N 37°46' E 123°13'811.8
2017-Apr-15 14:49N 37°39' E 123°18'412.8
2017-Apr-15 14:30N 37°35' E 123°19'1313.1
2017-Apr-15 13:30N 37°23' E 123°26'713.0
2017-Apr-15 12:59N 37°17' E 123°29'611.7
2017-Apr-15 12:30N 37°12' E 123°32'1013.4
2017-Apr-15 11:47N 37°04' E 123°38'  

Dump ship's entire track history